Wednesday, November 14, 2018, 6:45 AM GMT
Back to Local

CYOW, Ottawa Int'L. Ont.

Location: , , Canada Lat: 45.317
Local Time: 6:45 AM GMT ( 6:45 GMT) Lon: -75.667
Time Zone: GMT Elev: 380 ft

Show me the last for .
Show Decoded

2018-11-14 06:00 METAR CYOW 140600Z 33008KT 15SM FEW048 FEW060 M09/M14 A3016 RMK SC1SC1 SLP222 =
2018-11-14 05:00 METAR CYOW 140500Z 33010KT 15SM BKN058 M08/M14 A3015 RMK SC5 SLP218 =
2018-11-14 04:00 METAR CYOW 140400Z 34006KT 15SM SCT052 M07/M12 A3013 RMK SC3 SLP212 =
2018-11-14 03:00 METAR CYOW 140300Z 30004KT 280V340 15SM OVC070 M07/M11 A3012 RMK AC8 SLP208 =
2018-11-14 02:43 METAR CYOW 140243Z 31005KT 15SM BKN071 M07/M12 A3012 RMK AC7 SLP208 =
2018-11-14 02:00 METAR CYOW 140200Z 31007KT 15SM FEW040 SCT065 M07/M12 A3012 RMK SC1SC2 SLP206 =
2018-11-14 01:00 METAR CYOW 140100Z 30010KT 15SM FEW058 FEW150 M07/M11 A3010 RMK SC1AC1 SC TR
                 SLP202 =
2018-11-14 00:00 METAR CYOW 140000Z 31009KT 15SM FEW058 M06/M10 A3008 RMK SC1 SLP193 =
2018-11-13 23:00 METAR CYOW 132300Z 30017G22KT 15SM FEW050 M05/M11 A3006 RMK SC1 SC TR SLP189 =
2018-11-13 22:00 METAR CYOW 132200Z 31019G26KT 15SM FEW010 SCT050 BKN083 M03/M08 A3003 RMK
                 SF1SC4AC3 SF TR SLP175 =
2018-11-13 21:00 METAR CYOW 132100Z 30014G21KT 15SM BKN053 M03/M08 A3001 RMK SC7 SLP170 =
2018-11-13 20:18 METAR CYOW 132018Z 30018G25KT 15SM BKN041 M02/M06 A3000 RMK SC7 SLP167 =
2018-11-13 20:00 METAR CYOW 132000Z 30019KT 6SM -SN BKN020 OVC036 M02/M05 A3000 RMK SC6SC2 SLP165
                 =
2018-11-13 19:15 METAR CYOW 131915Z 30021G30KT 3SM -SN SCT010 OVC033 M02/M03 A2997 RMK SC3SC5
                 SLP157 =
2018-11-13 19:00 METAR CYOW 131900Z 29021G30KT 2SM -SN OVC009 M01/M03 A2997 RMK SN2SC6 SLP154 =
2018-11-13 18:00 METAR CYOW 131800Z 29015KT 1 1/2SM -SN OVC006 00/M00 A2996 RMK SN4SC4 /S02/
                 SLP151 =
2018-11-13 17:00 METAR CYOW 131700Z 28008KT 2 1/2SM -SN OVC004 01/00 A2997 RMK SN1SC7 SLP156 =
2018-11-13 16:00 METAR CYOW 131600Z 26004KT 1 1/2SM -SN OVC004 01/00 A3000 RMK SN4SC4 SLP165 =
2018-11-13 15:00 METAR CYOW 131500Z 00000KT 2SM -SN OVC005 00/00 A3000 RMK SN2SC6 SLP167 =
2018-11-13 14:00 METAR CYOW 131400Z 08003KT 2SM -SN OVC006 00/00 A3003 RMK SN2SC6 SLP177 =
2018-11-13 13:23 METAR CYOW 131323Z 08004KT 1 1/2SM -SN OVC008 00/M00 A3005 RMK SN2SC6 SLP182 =
2018-11-13 13:00 METAR CYOW 131300Z 10002KT 3/4SM R32/P6000FT/U R07/P6000FT/N -SN OVC009 00/M00
                 A3006 RMK SN6SC2 SLP185 =
2018-11-13 12:00 METAR CYOW 131200Z 11002KT 3/4SM R32/P6000FT/N R07/P6000FT/N -SN OVC006 00/M00
                 A3008 RMK SN6SC2 SLP192 =
2018-11-13 11:00 METAR CYOW 131100Z 00000KT 3/4SM R32/P6000FT/U R07/P6000FT/U -SN BR OVC010
                 00/M00 A3009 RMK SN6SC2 /S03/ SLP197 =
2018-11-13 10:33 METAR CYOW 131033Z 08002KT 3/4SM R32/P6000FT/N R07/P6000FT/N -SN BR OVC010
                 00/M00 A3010 RMK SN6SC2 SLP198 =
2018-11-13 10:00 METAR CYOW 131000Z 11002KT 1SM R32/6000FT/U R07/5500VP6000FT/U -SN BR OVC010
                 00/M00 A3011 RMK SN5SC3 /S02/ SLP204 =
2018-11-13 09:00 METAR CYOW 130900Z 00000KT 1 1/2SM -SN BR OVC011 00/M00 A3013 RMK SN4SF4 /S01/
                 SLP211 =
2018-11-13 08:18 METAR CYOW 130818Z 19002KT 1SM R32/P6000FT/D R07/P6000FT/D -SN BR OVC006 00/M00
                 A3015 RMK SN5SF3 SLP216 =
2018-11-13 08:00 METAR CYOW 130800Z 18003KT 1 1/2SM -SN BR OVC003 00/M00 A3016 RMK SN4SF4 SLP218
                 =
2018-11-13 07:48 METAR CYOW 130748Z 18003KT 1 1/2SM -SN BR OVC003 00/M00 A3016 RMK SN4SF4 SLP220
                 =
2018-11-13 07:33 METAR CYOW 130733Z 19002KT 3SM -SN BR BKN003 OVC012 01/00 A3016 RMK SN1SF5SC2
                 SLP221 =
2018-11-13 07:00 METAR CYOW 130700Z 20003KT 6SM -RASN BR BKN005 OVC012 01/00 A3018 RMK SF5SC3
                 SLP225 =

Support USWX by starting your Amazon purchase here.